Time;durP1;ratioP1;P1;durP2;ratioP2;P2;SDS_P1;SDS_P2;PMS_P1;PMS_P2;Temp;Humidity;BMP_temperature;BMP_pressure;BME280_temperature;BME280_humidity;BME280_pressure;Samples;Min_cycle;Max_cycle;Signal;HPM_P1;HPM_P2
2023/08/30 00:00:56;;;;;;;2.37;2.20;;;;;;;15.05;83.55;99865.19;5051858;28;20229;-74
2023/08/30 00:03:23;;;;;;;3.17;2.33;;;;;;;15.05;83.16;99862.56;5039765;28;20229;-74
2023/08/30 00:05:49;;;;;;;1.97;1.87;;;;;;;14.93;83.78;99852.63;5034846;28;20214;-75
2023/08/30 00:08:18;;;;;;;2.50;2.40;;;;;;;14.80;84.24;99840.03;5034187;28;20202;-74
2023/08/30 00:10:46;;;;;;;2.40;2.23;;;;;;;14.83;84.75;99844.31;5034493;28;20203;-74
2023/08/30 00:13:13;;;;;;;3.00;2.27;;;;;;;14.70;85.37;99833.50;5034179;28;20228;-74
2023/08/30 00:15:39;;;;;;;2.60;2.50;;;;;;;14.66;85.49;99818.81;5034460;28;20551;-74
2023/08/30 00:18:06;;;;;;;3.10;2.30;;;;;;;14.55;86.19;99810.53;5034225;28;20213;-75
2023/08/30 00:20:33;;;;;;;2.80;2.53;;;;;;;14.61;86.26;99805.06;5034107;28;20259;-75
2023/08/30 00:23:00;;;;;;;2.83;2.53;;;;;;;14.56;86.54;99794.75;5034359;28;20264;-74
2023/08/30 00:25:26;;;;;;;2.33;2.23;;;;;;;14.78;86.37;99791.97;5033311;28;20586;-75
2023/08/30 00:27:54;;;;;;;2.27;2.17;;;;;;;14.73;86.24;99799.22;5034181;28;20587;-75
2023/08/30 00:30:21;;;;;;;2.70;2.50;;;;;;;14.66;86.06;99798.66;5033965;28;20680;-75
2023/08/30 00:32:47;;;;;;;2.30;2.20;;;;;;;14.85;85.76;99803.06;5034388;28;20227;-74
2023/08/30 00:35:14;;;;;;;2.97;2.43;;;;;;;14.89;86.13;99792.31;5033815;28;20573;-74
2023/08/30 00:37:41;;;;;;;3.97;2.30;;;;;;;14.94;86.03;99792.09;5034084;28;20217;-74
2023/08/30 00:40:08;;;;;;;2.70;2.33;;;;;;;14.94;85.82;99804.41;5033593;28;20248;-75
2023/08/30 00:42:35;;;;;;;2.20;2.10;;;;;;;14.96;86.27;99794.66;5033435;28;20237;-74
2023/08/30 00:45:03;;;;;;;2.27;2.13;;;;;;;15.00;86.22;99796.22;5033834;28;20214;-74
2023/08/30 00:47:29;;;;;;;2.00;1.90;;;;;;;15.05;86.49;99787.19;5033917;28;20275;-74
2023/08/30 00:49:56;;;;;;;2.00;1.90;;;;;;;15.08;86.79;99788.81;5034003;28;20211;-74
2023/08/30 00:52:22;;;;;;;2.07;1.87;;;;;;;15.09;86.69;99787.91;5033574;28;20222;-75
2023/08/30 00:54:49;;;;;;;2.03;1.90;;;;;;;15.17;86.52;99782.28;5033380;28;20217;-75
2023/08/30 00:57:16;;;;;;;3.33;2.03;;;;;;;15.17;86.88;99782.28;5033547;28;20225;-74
2023/08/30 00:59:43;;;;;;;3.73;2.23;;;;;;;15.18;87.07;99776.94;5033574;28;20213;-74
2023/08/30 01:02:10;;;;;;;2.70;2.30;;;;;;;15.19;87.16;99783.06;5032789;28;20738;-75
2023/08/30 01:04:37;;;;;;;2.13;1.93;;;;;;;15.27;86.75;99779.13;5033796;28;20213;-74
2023/08/30 01:07:04;;;;;;;4.00;2.07;;;;;;;15.33;86.74;99787.63;5033463;28;20676;-75
2023/08/30 01:09:30;;;;;;;2.07;1.97;;;;;;;15.29;86.07;99793.03;5033366;28;20209;-74
2023/08/30 01:12:02;;;;;;;2.90;2.30;;;;;;;15.18;85.78;99800.63;5032994;28;20222;-74
2023/08/30 01:14:35;;;;;;;2.20;2.00;;;;;;;15.14;86.30;99799.03;5032116;28;20214;-75
2023/08/30 01:17:02;;;;;;;2.50;2.27;;;;;;;15.17;86.54;99795.44;5033335;28;20220;-75
2023/08/30 01:19:42;;;;;;;2.83;2.60;;;;;;;15.17;86.81;99777.88;5033389;28;20214;-75
2023/08/30 01:22:16;;;;;;;2.03;1.90;;;;;;;15.25;87.04;99773.06;5032991;28;20241;-75
2023/08/30 01:24:49;;;;;;;3.37;2.40;;;;;;;15.28;87.43;99774.69;5032663;28;20213;-75
2023/08/30 01:27:19;;;;;;;2.10;2.00;;;;;;;15.23;87.53;99774.09;5033406;28;20216;-74
2023/08/30 01:29:47;;;;;;;2.87;2.30;;;;;;;15.24;87.49;99762.63;5033205;28;20202;-74
2023/08/30 01:32:14;;;;;;;2.87;1.93;;;;;;;15.21;87.35;99760.16;5032887;28;20225;-74
2023/08/30 01:34:43;;;;;;;2.40;2.20;;;;;;;15.19;87.30;99756.75;5032788;28;20205;-75
2023/08/30 01:37:10;;;;;;;2.63;2.43;;;;;;;15.14;86.94;99761.38;5033239;28;20241;-75
2023/08/30 01:39:40;;;;;;;3.00;2.80;;;;;;;15.15;86.82;99761.31;5032866;28;20297;-75
2023/08/30 01:42:09;;;;;;;3.80;3.50;;;;;;;15.14;85.68;99785.03;5032687;28;20284;-74
2023/08/30 01:44:39;;;;;;;2.87;2.67;;;;;;;15.05;86.82;99781.09;5033026;28;20210;-75
2023/08/30 01:47:06;;;;;;;3.20;3.00;;;;;;;15.03;87.08;99777.69;5032369;28;20210;-74
2023/08/30 01:49:34;;;;;;;3.20;2.97;;;;;;;15.07;87.45;99758.22;5032589;28;20669;-75
2023/08/30 01:52:02;;;;;;;2.93;2.57;;;;;;;15.14;87.21;99759.59;5032257;28;20598;-75
2023/08/30 01:54:29;;;;;;;2.40;2.30;;;;;;;15.21;86.93;99765.44;5032541;28;20233;-75
2023/08/30 01:56:57;;;;;;;6.23;3.07;;;;;;;15.18;86.20;99779.59;5032554;28;20213;-74
2023/08/30 01:59:24;;;;;;;2.27;2.07;;;;;;;15.27;85.68;99792.25;5032553;28;20264;-75
2023/08/30 02:01:53;;;;;;;2.63;2.50;;;;;;;15.29;85.54;99807.97;5032065;28;20226;-75
2023/08/30 02:04:19;;;;;;;3.00;2.77;;;;;;;15.27;85.34;99815.09;5032393;28;20210;-75
2023/08/30 02:06:51;;;;;;;3.17;2.97;;;;;;;15.16;85.38;99807.69;5032308;28;20595;-75
2023/08/30 02:09:22;;;;;;;3.10;2.80;;;;;;;15.21;85.44;99808.34;5032326;28;20217;-74
2023/08/30 02:11:51;;;;;;;3.50;3.30;;;;;;;15.21;85.25;99804.88;5032001;28;20596;-75
2023/08/30 02:14:19;;;;;;;3.70;2.63;;;;;;;15.22;85.38;99812.69;5031840;28;20699;-74
2023/08/30 02:16:48;;;;;;;2.63;2.43;;;;;;;15.18;85.53;99813.75;5031806;28;20225;-74
2023/08/30 02:19:16;;;;;;;2.47;2.37;;;;;;;15.20;85.41;99814.53;5032028;28;20209;-75
2023/08/30 02:21:43;;;;;;;3.73;2.67;;;;;;;15.21;85.14;99816.22;5031627;28;20232;-74
2023/08/30 02:24:10;;;;;;;2.93;2.70;;;;;;;15.22;85.43;99806.56;5032446;28;20309;-75
2023/08/30 02:26:36;;;;;;;3.23;2.93;;;;;;;15.27;85.11;99797.53;5031944;28;20202;-74
2023/08/30 02:29:03;;;;;;;4.80;3.60;;;;;;;15.26;84.92;99803.72;5031358;28;20288;-74
2023/08/30 02:31:29;;;;;;;3.30;3.00;;;;;;;15.24;85.30;99799.44;5031639;28;20209;-75
2023/08/30 02:33:56;;;;;;;3.60;3.30;;;;;;;15.24;85.50;99804.69;5031790;28;20205;-74
2023/08/30 02:36:24;;;;;;;3.67;3.37;;;;;;;15.22;85.69;99803.91;5031888;28;20213;-75
2023/08/30 02:38:50;;;;;;;3.67;3.47;;;;;;;15.17;86.06;99806.78;5031586;28;20214;-74
2023/08/30 02:41:17;;;;;;;3.50;3.23;;;;;;;15.09;86.60;99793.16;5030969;28;20751;-75
2023/08/30 02:43:43;;;;;;;4.23;3.97;;;;;;;14.96;87.07;99771.84;5031084;28;20222;-75
2023/08/30 02:46:10;;;;;;;3.53;3.33;;;;;;;14.94;87.41;99765.81;5031960;28;20213;-75
2023/08/30 02:48:36;;;;;;;4.10;3.90;;;;;;;14.96;87.32;99756.09;5031146;28;20671;-73
2023/08/30 02:51:03;;;;;;;4.00;3.73;;;;;;;15.01;87.28;99750.63;5031875;28;20210;-73
2023/08/30 02:53:31;;;;;;;3.53;3.33;;;;;;;14.96;87.09;99748.19;5031381;28;20734;-73
2023/08/30 02:55:57;;;;;;;3.47;3.27;;;;;;;14.98;87.17;99748.97;5031577;28;20213;-73
2023/08/30 02:58:24;;;;;;;4.03;3.10;;;;;;;14.92;87.91;99735.28;5031364;28;20687;-74
2023/08/30 03:00:51;;;;;;;3.50;3.20;;;;;;;14.89;88.53;99728.41;5031835;28;20206;-74
2023/08/30 03:03:17;;;;;;;2.83;2.63;;;;;;;14.95;88.69;99722.88;5031712;28;20240;-74
2023/08/30 03:05:44;;;;;;;3.50;3.20;;;;;;;14.94;88.10;99726.41;5031645;28;20213;-74
2023/08/30 03:08:10;;;;;;;2.97;2.70;;;;;;;14.98;87.84;99733.22;5031104;28;20586;-74
2023/08/30 03:10:38;;;;;;;3.63;3.33;;;;;;;15.00;87.72;99736.59;5031155;28;20210;-74
2023/08/30 03:13:05;;;;;;;3.37;3.07;;;;;;;15.02;87.39;99747.91;5031264;28;20242;-74
2023/08/30 03:15:32;;;;;;;3.50;3.20;;;;;;;15.03;87.01;99748.78;5031738;28;20356;-74
2023/08/30 03:17:59;;;;;;;4.43;3.07;;;;;;;15.02;86.75;99747.06;5031463;28;20217;-74
2023/08/30 03:20:25;;;;;;;3.17;2.93;;;;;;;15.03;86.96;99756.66;5031283;28;20672;-74
2023/08/30 03:22:52;;;;;;;3.73;3.43;;;;;;;14.97;87.50;99756.97;5031244;28;20237;-74
2023/08/30 03:25:18;;;;;;;3.67;3.27;;;;;;;14.97;87.80;99739.41;5031035;28;20210;-74
2023/08/30 03:27:46;;;;;;;3.67;3.20;;;;;;;14.99;87.99;99739.34;5030892;28;20221;-73
2023/08/30 03:30:14;;;;;;;3.70;3.40;;;;;;;15.00;87.71;99735.75;5030689;28;20218;-73
2023/08/30 03:32:40;;;;;;;2.83;2.63;;;;;;;15.01;87.54;99738.34;5031215;28;20233;-73
2023/08/30 03:35:09;;;;;;;4.17;3.20;;;;;;;15.00;87.80;99733.13;5031368;28;20209;-73
2023/08/30 03:37:42;;;;;;;4.07;2.73;;;;;;;14.96;87.57;99726.34;5031390;28;20202;-74
2023/08/30 03:40:09;;;;;;;3.07;2.87;;;;;;;14.98;87.46;99729.72;5031377;28;20230;-74
2023/08/30 03:42:36;;;;;;;5.97;3.33;;;;;;;15.00;87.62;99731.34;5031099;28;20237;-74
2023/08/30 03:45:05;;;;;;;3.53;3.23;;;;;;;15.01;87.83;99729.59;5031517;28;20213;-74
2023/08/30 03:47:31;;;;;;;3.93;3.10;;;;;;;15.02;87.96;99726.88;5031226;28;20206;-73
2023/08/30 03:49:58;;;;;;;6.73;3.40;;;;;;;15.03;87.88;99723.34;5031087;28;20213;-73
2023/08/30 03:52:25;;;;;;;3.37;3.17;;;;;;;15.07;88.38;99718.78;5030416;28;20226;-73
2023/08/30 03:54:51;;;;;;;4.40;2.73;;;;;;;15.08;88.54;99708.19;5031401;28;20220;-73
2023/08/30 03:57:18;;;;;;;3.13;2.93;;;;;;;15.07;88.27;99716.16;5031340;28;20216;-74
2023/08/30 03:59:45;;;;;;;3.97;3.57;;;;;;;15.08;87.26;99730.97;5033773;28;20206;-73
2023/08/30 04:02:13;;;;;;;3.03;2.83;;;;;;;15.01;85.96;99748.00;5034670;28;20234;-74
2023/08/30 04:04:39;;;;;;;3.83;3.53;;;;;;;14.78;85.69;99788.50;5034773;28;20203;-74
2023/08/30 04:07:06;;;;;;;4.40;4.10;;;;;;;12.86;89.40;99780.00;5034537;28;20680;-73
2023/08/30 04:09:33;;;;;;;5.07;4.70;;;;;;;12.62;93.27;99663.13;5034689;28;20224;-73
2023/08/30 04:12:00;;;;;;;5.33;5.03;;;;;;;12.89;93.12;99624.47;5034365;28;20240;-73
2023/08/30 04:14:26;;;;;;;5.00;4.60;;;;;;;13.07;92.50;99610.59;5034276;28;20301;-73
2023/08/30 04:16:53;;;;;;;4.60;4.40;;;;;;;13.33;91.75;99608.66;5034044;28;20227;-73
2023/08/30 04:19:21;;;;;;;7.43;4.67;;;;;;;13.51;90.60;99626.19;5034460;28;20319;-73
2023/08/30 04:21:47;;;;;;;4.40;4.10;;;;;;;13.65;89.32;99661.44;5033907;28;20703;-73
2023/08/30 04:24:15;;;;;;;4.50;4.10;;;;;;;13.71;87.73;99695.28;5033997;28;20213;-73
2023/08/30 04:26:41;;;;;;;4.30;4.00;;;;;;;13.75;87.43;99722.22;5034263;28;20205;-73
2023/08/30 04:29:08;;;;;;;4.37;4.17;;;;;;;13.79;87.34;99721.16;5034325;28;20217;-73
2023/08/30 04:31:35;;;;;;;4.03;3.83;;;;;;;13.81;86.74;99735.06;5034077;28;20212;-73
2023/08/30 04:34:02;;;;;;;4.07;3.87;;;;;;;13.82;87.05;99737.63;5033864;28;20209;-73
2023/08/30 04:36:30;;;;;;;4.80;4.50;;;;;;;13.69;87.74;99726.81;5034402;28;20296;-73
2023/08/30 04:38:56;;;;;;;4.63;4.33;;;;;;;13.72;89.18;99697.00;5034335;28;20216;-73
2023/08/30 04:41:23;;;;;;;4.60;4.30;;;;;;;13.83;88.78;99697.34;5033741;28;20573;-74
2023/08/30 04:43:49;;;;;;;3.97;3.70;;;;;;;13.96;88.50;99702.06;5033826;28;20237;-73
2023/08/30 04:46:16;;;;;;;3.87;3.57;;;;;;;14.02;87.82;99712.28;5033530;28;20693;-73
2023/08/30 04:48:42;;;;;;;4.33;4.03;;;;;;;14.05;87.67;99717.38;5033209;28;20212;-73
2023/08/30 04:51:09;;;;;;;4.00;3.70;;;;;;;14.08;87.77;99712.84;5033989;28;20223;-73
2023/08/30 04:53:37;;;;;;;3.80;3.50;;;;;;;14.03;88.92;99696.50;5034074;28;20218;-73
2023/08/30 04:56:11;;;;;;;3.87;3.57;;;;;;;14.07;88.85;99692.81;5034709;28;20209;-73
2023/08/30 04:58:38;;;;;;;4.33;3.93;;;;;;;14.14;89.18;99688.13;5033759;28;20216;-74
2023/08/30 05:01:04;;;;;;;4.53;4.17;;;;;;;14.19;89.50;99685.28;5033286;28;20242;-76
2023/08/30 05:03:31;;;;;;;4.53;4.13;;;;;;;14.22;90.44;99662.34;5034737;28;20287;-75
2023/08/30 05:05:57;;;;;;;4.00;3.67;;;;;;;14.29;91.51;99647.16;5033491;28;20202;-75
2023/08/30 05:08:24;;;;;;;4.63;4.33;;;;;;;14.33;92.13;99632.13;5033090;28;20206;-75
2023/08/30 05:10:54;;;;;;;4.07;3.60;;;;;;;14.38;92.61;99617.84;5032630;28;20213;-75
2023/08/30 05:13:21;;;;;;;4.83;4.27;;;;;;;14.48;93.02;99607.75;5033200;28;20263;-74
2023/08/30 05:15:47;;;;;;;4.60;4.30;;;;;;;14.56;92.55;99607.41;5032641;28;20207;-74
2023/08/30 05:18:14;;;;;;;5.77;5.17;;;;;;;14.63;92.80;99607.06;5033361;28;20210;-74
2023/08/30 05:20:40;;;;;;;4.60;4.30;;;;;;;14.70;93.83;99594.47;5032635;28;20582;-74
2023/08/30 05:23:07;;;;;;;4.23;4.00;;;;;;;14.82;94.26;99582.50;5032821;28;20237;-74
2023/08/30 05:25:34;;;;;;;4.47;4.17;;;;;;;14.84;93.92;99578.84;5033215;28;20276;-74
2023/08/30 05:28:03;;;;;;;4.87;4.27;;;;;;;14.95;92.98;99585.38;5032356;28;20220;-74
2023/08/30 05:30:30;;;;;;;4.70;4.40;;;;;;;14.97;93.67;99581.72;5032628;28;20210;-74
2023/08/30 05:32:56;;;;;;;4.53;4.23;;;;;;;15.07;93.40;99582.94;5032927;28;20237;-74
2023/08/30 05:35:23;;;;;;;5.27;4.97;;;;;;;15.17;93.19;99595.63;5032628;28;20213;-74
2023/08/30 05:37:50;;;;;;;4.83;4.47;;;;;;;15.23;93.56;99595.31;5032912;28;20207;-74
2023/08/30 05:40:17;;;;;;;4.43;4.13;;;;;;;15.29;92.72;99613.41;5032712;28;20714;-74
2023/08/30 05:42:45;;;;;;;4.50;4.20;;;;;;;15.36;91.96;99622.66;5032220;28;20344;-74
2023/08/30 05:45:13;;;;;;;5.23;4.73;;;;;;;15.48;90.83;99644.84;5032031;28;20214;-74
2023/08/30 05:47:39;;;;;;;4.87;4.47;;;;;;;15.51;89.29;99689.41;5032326;28;20217;-74
2023/08/30 05:50:06;;;;;;;4.47;4.20;;;;;;;15.51;86.85;99736.75;5032820;28;20217;-74
2023/08/30 05:52:33;;;;;;;5.10;4.40;;;;;;;15.54;85.02;99781.31;5032225;28;20274;-74
2023/08/30 05:54:59;;;;;;;5.00;4.70;;;;;;;15.66;85.25;99783.31;5032647;28;20213;-74
2023/08/30 05:57:27;;;;;;;5.30;4.80;;;;;;;15.65;84.94;99794.75;5032357;28;20206;-74
2023/08/30 05:59:54;;;;;;;5.33;5.03;;;;;;;15.70;86.80;99773.50;5032705;28;20212;-74
2023/08/30 06:02:21;;;;;;;6.13;5.63;;;;;;;15.79;87.55;99743.25;5032104;28;20232;-74
2023/08/30 06:04:48;;;;;;;6.33;5.80;;;;;;;15.87;87.82;99731.38;5032403;28;20214;-73
2023/08/30 06:07:14;;;;;;;5.40;5.10;;;;;;;15.89;87.14;99739.22;5034136;28;20217;-73
2023/08/30 06:09:41;;;;;;;5.63;5.17;;;;;;;15.91;87.27;99732.09;5052331;28;20212;-74
2023/08/30 06:12:08;;;;;;;5.60;5.20;;;;;;;15.96;87.04;99737.13;5051901;28;20233;-73
2023/08/30 06:14:35;;;;;;;5.97;5.67;;;;;;;16.00;88.08;99721.09;5052059;28;20217;-73
2023/08/30 06:17:02;;;;;;;5.67;5.27;;;;;;;16.09;87.58;99717.09;5051721;28;20250;-73
2023/08/30 06:19:30;;;;;;;6.37;5.97;;;;;;;16.19;87.67;99713.03;5051969;28;20212;-73
2023/08/30 06:21:56;;;;;;;5.67;5.37;;;;;;;16.26;87.88;99718.84;5050634;28;20226;-73
2023/08/30 06:24:23;;;;;;;5.77;5.37;;;;;;;16.34;87.93;99710.53;5051981;28;20233;-73
2023/08/30 06:26:49;;;;;;;5.67;5.13;;;;;;;16.32;86.61;99733.47;5052050;28;20217;-73
2023/08/30 06:29:16;;;;;;;7.90;5.90;;;;;;;16.20;87.14;99732.34;5051418;28;20216;-73
2023/08/30 06:31:42;;;;;;;6.30;5.80;;;;;;;16.24;87.85;99712.81;5051376;28;20206;-73
2023/08/30 06:34:09;;;;;;;6.23;5.83;;;;;;;16.36;87.08;99719.19;5051575;28;20205;-73
2023/08/30 06:36:37;;;;;;;6.53;6.13;;;;;;;16.36;88.26;99709.50;5050043;28;20207;-74
2023/08/30 06:39:04;;;;;;;6.80;6.20;;;;;;;16.46;87.88;99701.94;5049742;28;20212;-73
2023/08/30 06:41:30;;;;;;;5.73;5.43;;;;;;;16.25;87.69;99694.28;5049735;28;20211;-73
2023/08/30 06:43:58;;;;;;;6.00;5.63;;;;;;;16.25;88.49;99675.00;5049457;28;20608;-74
2023/08/30 06:46:24;;;;;;;5.83;5.43;;;;;;;16.26;88.48;99674.06;5050164;28;20201;-74
2023/08/30 06:48:51;;;;;;;6.13;5.73;;;;;;;16.37;86.91;99702.44;5050321;28;20574;-74
2023/08/30 06:51:17;;;;;;;5.67;5.23;;;;;;;16.44;86.00;99731.00;5050316;28;20209;-73
2023/08/30 06:53:46;;;;;;;5.63;5.13;;;;;;;16.56;85.72;99734.75;5051371;28;20596;-73
2023/08/30 06:56:13;;;;;;;6.03;5.53;;;;;;;16.62;85.40;99760.75;5051112;28;20654;-73
2023/08/30 06:58:40;;;;;;;5.90;5.50;;;;;;;16.63;84.92;99767.75;5051490;28;20197;-73
2023/08/30 07:01:06;;;;;;;6.00;5.50;;;;;;;16.64;84.75;99779.13;5051123;28;20228;-73
2023/08/30 07:03:33;;;;;;;6.97;5.30;;;;;;;16.52;85.45;99788.53;5051502;28;20236;-73
2023/08/30 07:05:59;;;;;;;6.30;5.90;;;;;;;16.66;85.48;99766.72;5050973;28;20205;-74
2023/08/30 07:08:26;;;;;;;5.53;5.13;;;;;;;16.58;87.10;99739.94;5051020;28;20576;-74
2023/08/30 07:10:54;;;;;;;5.40;5.00;;;;;;;16.60;85.24;99757.34;5051231;28;20227;-74
2023/08/30 07:13:21;;;;;;;5.50;5.10;;;;;;;16.57;85.42;99764.56;5051435;28;20256;-74
2023/08/30 07:15:48;;;;;;;5.47;5.07;;;;;;;16.54;83.36;99796.38;5051290;28;20217;-74
2023/08/30 07:18:14;;;;;;;5.03;4.53;;;;;;;16.60;85.00;99782.88;5051217;28;20205;-74
2023/08/30 07:20:41;;;;;;;5.33;5.03;;;;;;;16.52;82.09;99809.63;5051630;28;20208;-74
2023/08/30 07:23:07;;;;;;;5.47;5.17;;;;;;;16.59;81.00;99860.19;5051358;28;20256;-74
2023/08/30 07:25:36;;;;;;;5.67;5.17;;;;;;;16.68;80.22;99886.06;5051562;28;20227;-74
2023/08/30 07:28:04;;;;;;;5.60;5.10;;;;;;;16.43;79.67;99899.66;5051260;28;20224;-74
2023/08/30 07:30:31;;;;;;;5.90;5.30;;;;;;;16.44;79.48;99919.84;5051487;28;20216;-74
2023/08/30 07:32:57;;;;;;;5.43;4.93;;;;;;;16.63;79.95;99902.13;5051802;28;20229;-74
2023/08/30 07:35:24;;;;;;;5.57;5.17;;;;;;;16.78;80.00;99900.47;5054923;28;20214;-74
2023/08/30 07:37:50;;;;;;;6.10;5.70;;;;;;;16.80;79.47;99898.59;5055296;28;20228;-74
2023/08/30 07:40:17;;;;;;;6.07;5.57;;;;;;;16.89;79.23;99899.94;5055171;28;20216;-74
2023/08/30 07:42:43;;;;;;;6.90;6.30;;;;;;;16.70;77.65;99912.34;5054822;28;20233;-74
2023/08/30 07:45:11;;;;;;;7.03;6.50;;;;;;;16.72;78.65;99935.03;5055030;28;20221;-74
2023/08/30 07:47:38;;;;;;;6.73;6.27;;;;;;;16.77;79.48;99934.78;5054488;28;20727;-74
2023/08/30 07:50:06;;;;;;;6.40;5.93;;;;;;;16.78;81.27;99899.63;5054915;28;20209;-74
2023/08/30 07:52:33;;;;;;;7.90;7.40;;;;;;;16.80;78.14;99919.69;5054527;28;20739;-74
2023/08/30 07:55:00;;;;;;;7.03;6.53;;;;;;;16.91;79.31;99927.06;5054519;28;20214;-74
2023/08/30 07:57:26;;;;;;;7.70;7.20;;;;;;;16.94;79.80;99907.59;5054863;28;20215;-74
2023/08/30 07:59:53;;;;;;;7.53;6.97;;;;;;;16.93;79.03;99916.44;5054753;28;20205;-74
2023/08/30 08:02:21;;;;;;;8.37;7.77;;;;;;;16.99;79.52;99910.84;5054167;28;20276;-74
2023/08/30 08:04:49;;;;;;;8.50;7.90;;;;;;;17.09;78.65;99919.94;5054204;28;20233;-74
2023/08/30 08:07:16;;;;;;;8.23;7.63;;;;;;;17.19;77.88;99925.56;5041693;28;20230;-74
2023/08/30 08:09:43;;;;;;;7.37;6.70;;;;;;;17.18;76.37;99961.63;5034346;28;20214;-74
2023/08/30 08:12:09;;;;;;;7.90;7.30;;;;;;;17.14;76.92;99967.16;5034194;28;20289;-74
2023/08/30 08:14:36;;;;;;;7.00;6.50;;;;;;;17.34;77.91;99943.16;5034029;28;20587;-74
2023/08/30 08:17:02;;;;;;;6.83;6.33;;;;;;;17.43;76.94;99962.94;5034040;28;20215;-74
2023/08/30 08:19:30;;;;;;;5.77;5.37;;;;;;;17.19;76.33;99978.31;5060038;28;20209;-74
2023/08/30 08:21:57;;;;;;;5.60;5.30;;;;;;;17.25;76.45;99984.09;5073791;28;20231;-74
2023/08/30 08:24:23;;;;;;;6.13;5.67;;;;;;;17.17;76.51;99981.03;5073874;28;20236;-74
2023/08/30 08:26:50;;;;;;;6.07;5.57;;;;;;;17.30;76.55;99975.94;5074096;28;20298;-74
2023/08/30 08:29:17;;;;;;;5.50;5.10;;;;;;;17.41;77.80;99952.47;5073840;28;20679;-74
2023/08/30 08:31:44;;;;;;;5.77;5.27;;;;;;;17.57;77.93;99931.34;5073791;28;20206;-74
2023/08/30 08:34:12;;;;;;;7.53;7.00;;;;;;;17.35;77.87;99944.88;5073646;28;20213;-74
2023/08/30 08:36:42;;;;;;;7.10;6.50;;;;;;;17.64;76.97;99938.00;5073625;28;20206;-74
2023/08/30 08:39:09;;;;;;;8.13;7.50;;;;;;;17.59;76.35;99950.59;5073651;28;20733;-74
2023/08/30 08:41:41;;;;;;;10.20;9.40;;;;;;;17.54;76.49;99968.50;5073512;28;20685;-74
2023/08/30 08:44:08;;;;;;;7.97;7.37;;;;;;;17.66;76.96;99954.59;5073466;28;20319;-74
2023/08/30 08:46:36;;;;;;;6.27;5.73;;;;;;;17.77;76.66;99955.78;5072606;28;20687;-74
2023/08/30 08:49:08;;;;;;;6.43;6.03;;;;;;;17.84;78.29;99928.97;5073339;28;20207;-74
2023/08/30 08:51:36;;;;;;;7.13;6.63;;;;;;;17.67;77.54;99931.69;5073693;28;20211;-75
2023/08/30 08:54:05;;;;;;;9.30;8.50;;;;;;;17.77;77.65;99927.59;5073670;28;20207;-74
2023/08/30 08:56:33;;;;;;;8.93;8.33;;;;;;;17.73;77.03;99935.78;5073528;28;20251;-74
2023/08/30 08:59:01;;;;;;;8.30;7.57;;;;;;;17.86;77.47;99923.63;5073367;28;20229;-74
2023/08/30 09:01:28;;;;;;;10.10;9.40;;;;;;;17.78;77.39;99926.66;5073432;28;20207;-74
2023/08/30 09:03:55;;;;;;;9.03;8.40;;;;;;;18.00;77.64;99921.00;5073077;28;20739;-74
2023/08/30 09:06:23;;;;;;;9.93;9.17;;;;;;;18.10;77.41;99917.84;5073225;28;20211;-75
2023/08/30 09:08:49;;;;;;;10.23;9.40;;;;;;;18.20;76.81;99922.50;5073020;28;20658;-74
2023/08/30 09:11:17;;;;;;;9.87;9.17;;;;;;;18.26;76.56;99930.06;5073058;28;20201;-74
2023/08/30 09:13:44;;;;;;;10.07;9.37;;;;;;;18.35;76.14;99948.94;5072919;28;20258;-74
2023/08/30 09:16:14;;;;;;;10.53;9.73;;;;;;;17.91;76.08;99977.00;5072881;28;20208;-74
2023/08/30 09:18:41;;;;;;;9.70;8.97;;;;;;;18.10;76.29;99953.03;5073085;28;20576;-74
2023/08/30 09:21:08;;;;;;;11.53;10.63;;;;;;;18.14;75.44;99972.19;5073107;28;20210;-74
2023/08/30 09:23:34;;;;;;;10.50;9.70;;;;;;;18.32;76.08;99965.00;5072736;28;20242;-74
2023/08/30 09:26:02;;;;;;;10.10;9.30;;;;;;;18.49;75.74;99970.09;5079698;28;20417;-74
2023/08/30 09:28:31;;;;;;;10.33;9.63;;;;;;;18.30;74.63;99999.41;5075240;28;20206;-73
2023/08/30 09:30:59;;;;;;;10.63;9.73;;;;;;;18.36;74.15;100007.00;5091262;28;20204;-74
2023/08/30 09:33:31;;;;;;;10.57;9.83;;;;;;;18.27;73.61;100026.00;5091823;28;20224;-74
2023/08/30 09:35:58;;;;;;;10.13;9.43;;;;;;;18.48;74.30;100012.50;5073334;28;20754;-74
2023/08/30 09:38:25;;;;;;;9.57;8.87;;;;;;;18.60;73.86;100022.34;5072501;28;20238;-74
2023/08/30 09:40:52;;;;;;;10.20;9.47;;;;;;;18.70;73.81;100012.94;5072640;28;20207;-74
2023/08/30 09:43:21;;;;;;;10.00;9.30;;;;;;;18.56;73.17;100032.25;5072288;28;20266;-73
2023/08/30 09:45:49;;;;;;;10.67;9.87;;;;;;;18.46;73.61;100028.44;5072424;28;20717;-73
2023/08/30 09:48:16;;;;;;;9.47;8.77;;;;;;;18.62;73.95;100016.03;5071863;28;20221;-73
2023/08/30 09:50:45;;;;;;;9.60;8.80;;;;;;;18.78;73.26;100010.69;5072200;28;20215;-73
2023/08/30 09:53:16;;;;;;;11.47;10.50;;;;;;;18.95;73.12;100025.56;5072353;28;20232;-74
2023/08/30 09:55:44;;;;;;;9.53;8.83;;;;;;;19.12;72.68;100027.19;5072291;28;20204;-74
2023/08/30 09:58:11;;;;;;;8.70;8.10;;;;;;;19.18;72.31;100047.13;5072234;28;20673;-74
2023/08/30 10:00:38;;;;;;;8.30;7.60;;;;;;;19.37;73.68;100007.16;5072413;28;20207;-74
2023/08/30 10:03:07;;;;;;;8.47;7.87;;;;;;;19.47;70.49;100063.03;5072290;28;20261;-74
2023/08/30 10:05:36;;;;;;;8.27;7.67;;;;;;;19.47;70.11;100100.09;5072113;28;20768;-74
2023/08/30 10:08:05;;;;;;;9.83;8.93;;;;;;;19.53;70.07;100097.91;5072107;28;20231;-74
2023/08/30 10:10:32;;;;;;;11.50;10.70;;;;;;;19.32;69.23;100142.41;5071769;28;20215;-74
2023/08/30 10:12:59;;;;;;;11.47;10.67;;;;;;;19.53;68.56;100140.25;5072085;28;20263;-74
2023/08/30 10:15:28;;;;;;;9.43;8.73;;;;;;;19.25;67.66;100170.19;5072091;28;20210;-74
2023/08/30 10:17:58;;;;;;;9.53;8.73;;;;;;;19.43;68.87;100161.13;5072023;28;20212;-74
2023/08/30 10:20:28;;;;;;;10.53;9.73;;;;;;;19.28;66.56;100191.16;5071839;28;20684;-74
2023/08/30 10:22:56;;;;;;;9.97;9.17;;;;;;;19.55;68.58;100167.50;5071602;28;20230;-74
2023/08/30 10:25:27;;;;;;;10.00;9.20;;;;;;;19.34;67.00;100213.78;5072197;28;20254;-74
2023/08/30 10:27:55;;;;;;;9.30;8.50;;;;;;;19.43;67.13;100224.66;5072059;28;20324;-74
2023/08/30 10:30:23;;;;;;;8.43;7.73;;;;;;;19.26;67.34;100185.13;5071858;28;20260;-74
2023/08/30 10:32:50;;;;;;;8.27;7.67;;;;;;;19.14;68.25;100168.16;5071675;28;20235;-74
2023/08/30 10:35:19;;;;;;;8.63;8.03;;;;;;;19.12;67.82;100175.34;5071645;28;20204;-74
2023/08/30 10:37:56;;;;;;;8.13;7.63;;;;;;;19.28;67.36;100154.13;5071829;28;20208;-74
2023/08/30 10:40:23;;;;;;;8.37;7.67;;;;;;;19.44;68.87;100146.97;5071784;28;20214;-74
2023/08/30 10:43:00;;;;;;;8.37;7.77;;;;;;;19.08;67.32;100173.81;5071622;28;20232;-74
2023/08/30 10:45:26;;;;;;;7.47;6.83;;;;;;;19.39;70.88;100125.22;5071519;28;20226;-74
2023/08/30 10:47:56;;;;;;;7.70;7.07;;;;;;;19.53;69.33;100111.13;5071352;28;20213;-74
2023/08/30 10:50:30;;;;;;;7.43;6.83;;;;;;;19.61;72.52;100050.59;5071527;28;20212;-74
2023/08/30 10:52:58;;;;;;;7.53;7.03;;;;;;;19.72;70.03;100060.56;5071558;28;20823;-74
2023/08/30 10:55:25;;;;;;;6.73;6.30;;;;;;;19.80;69.39;100083.91;5071469;28;20427;-74
2023/08/30 10:58:00;;;;;;;7.33;6.57;;;;;;;19.83;69.68;100087.22;5071455;28;20204;-74
2023/08/30 11:00:29;;;;;;;6.33;5.93;;;;;;;19.95;69.88;100072.34;5071561;28;20211;-74
2023/08/30 11:02:55;;;;;;;7.47;6.90;;;;;;;20.03;69.55;100078.00;5071626;28;20228;-74
2023/08/30 11:05:23;;;;;;;7.67;7.07;;;;;;;19.89;65.70;100138.13;5071518;28;20320;-74
2023/08/30 11:07:51;;;;;;;7.10;6.60;;;;;;;19.91;65.56;100163.56;5071344;28;20212;-74
2023/08/30 11:10:20;;;;;;;6.30;5.90;;;;;;;19.89;66.42;100154.00;5075606;28;20200;-74
2023/08/30 11:12:49;;;;;;;7.13;6.63;;;;;;;19.99;67.76;100153.31;5075239;28;20308;-74
2023/08/30 11:15:15;;;;;;;7.37;6.87;;;;;;;20.02;67.71;100126.66;5075258;28;20232;-74
2023/08/30 11:17:42;;;;;;;8.87;8.27;;;;;;;19.90;66.70;100137.16;5075301;28;20816;-74
2023/08/30 11:20:11;;;;;;;8.20;7.50;;;;;;;19.76;66.62;100148.59;5075261;28;20220;-74
2023/08/30 11:22:38;;;;;;;7.97;7.27;;;;;;;19.88;68.01;100117.84;5075061;28;20241;-74
2023/08/30 11:25:06;;;;;;;7.87;7.37;;;;;;;19.90;70.32;100050.59;5075027;28;20522;-74
2023/08/30 11:27:34;;;;;;;9.73;8.87;;;;;;;19.61;65.45;100086.84;5074852;28;20201;-74
2023/08/30 11:30:02;;;;;;;9.90;9.10;;;;;;;19.78;66.18;100131.69;5074891;28;20206;-74
2023/08/30 11:32:28;;;;;;;8.87;8.17;;;;;;;19.53;67.00;100139.41;5074813;28;20228;-74